Time;durP1;ratioP1;P1;durP2;ratioP2;P2;SDS_P1;SDS_P2;PMS_P1;PMS_P2;Temp;Humidity;BMP_temperature;BMP_pressure;BME280_temperature;BME280_humidity;BME280_pressure;Samples;Min_cycle;Max_cycle;Signal;HPM_P1;HPM_P2
2020/12/18 00:01:24;;;;;;;14.65;12.65;;;10.20;96.70;;;;;;4967209;28;20042;-82
2020/12/18 00:03:53;;;;;;;14.50;12.05;;;10.10;96.70;;;;;;4977724;28;20073;-82
2020/12/18 00:06:21;;;;;;;15.07;12.32;;;10.10;96.70;;;;;;4981324;28;20141;-81
2020/12/18 00:08:50;;;;;;;15.27;12.05;;;10.10;96.70;;;;;;4980289;28;20054;-80
2020/12/18 00:11:20;;;;;;;15.98;12.43;;;10.10;96.70;;;;;;4963046;28;20047;-82
2020/12/18 00:13:48;;;;;;;18.42;14.27;;;10.10;96.70;;;;;;4963644;28;20039;-82
2020/12/18 00:16:16;;;;;;;18.15;13.63;;;10.10;96.70;;;;;;4966205;28;20642;-82
2020/12/18 00:18:45;;;;;;;14.98;12.73;;;10.20;96.70;;;;;;4978128;28;20042;-83
2020/12/18 00:21:17;;;;;;;19.30;14.85;;;10.20;96.70;;;;;;4965218;28;20070;-82
2020/12/18 00:23:45;;;;;;;18.73;14.35;;;10.20;96.70;;;;;;4964232;28;20073;-82
2020/12/18 00:26:12;;;;;;;19.15;14.75;;;10.10;96.70;;;;;;4964803;28;20169;-82
2020/12/18 00:28:40;;;;;;;17.08;14.00;;;10.10;96.70;;;;;;4980681;28;20133;-83
2020/12/18 00:31:07;;;;;;;19.15;15.48;;;10.00;96.70;;;;;;4963346;28;20133;-82
2020/12/18 00:33:35;;;;;;;19.17;15.23;;;10.00;96.70;;;;;;4982628;28;20042;-82
2020/12/18 00:36:02;;;;;;;22.23;17.20;;;10.10;96.70;;;;;;4979804;28;20042;-82
2020/12/18 00:38:31;;;;;;;18.58;15.27;;;10.10;96.70;;;;;;4965268;28;20046;-82
2020/12/18 00:40:58;;;;;;;18.45;16.00;;;10.10;96.70;;;;;;4979308;28;20053;-83
2020/12/18 00:43:25;;;;;;;18.55;15.45;;;10.10;96.70;;;;;;4983147;28;20658;-82
2020/12/18 00:45:52;;;;;;;17.63;14.57;;;10.10;96.70;;;;;;4964309;28;20041;-82
2020/12/18 00:48:20;;;;;;;18.13;14.73;;;10.10;96.70;;;;;;5012249;28;20148;-82
2020/12/18 00:50:47;;;;;;;19.02;15.07;;;10.10;96.70;;;;;;4981146;28;20114;-83
2020/12/18 00:53:14;;;;;;;20.45;15.25;;;10.10;96.70;;;;;;4998110;28;20153;-82
2020/12/18 00:55:45;;;;;;;20.80;15.23;;;10.10;96.70;;;;;;4975750;28;20031;-82
2020/12/18 00:58:13;;;;;;;20.23;15.30;;;10.10;96.70;;;;;;4981957;28;20031;-83
2020/12/18 01:00:40;;;;;;;20.50;14.73;;;10.10;96.70;;;;;;4975907;28;20512;-82
2020/12/18 01:03:15;;;;;;;19.17;15.35;;;10.10;96.70;;;;;;4978163;28;20042;-83
2020/12/18 01:05:44;;;;;;;18.23;15.35;;;10.10;96.70;;;;;;4978440;28;20034;-83
2020/12/18 01:08:16;;;;;;;21.50;15.90;;;10.10;96.70;;;;;;4978387;28;20043;-83
2020/12/18 01:10:46;;;;;;;18.58;14.30;;;10.10;96.70;;;;;;4960195;28;20054;-83
2020/12/18 01:13:13;;;;;;;19.80;14.93;;;10.10;96.70;;;;;;4965852;28;20137;-83
2020/12/18 01:15:42;;;;;;;18.40;15.27;;;10.00;96.70;;;;;;4964381;28;20068;-83
2020/12/18 01:18:22;;;;;;;22.92;16.60;;;10.00;96.70;;;;;;4979076;28;20064;-83
2020/12/18 01:20:50;;;;;;;18.13;15.63;;;10.00;96.70;;;;;;4978560;28;20058;-82
2020/12/18 01:23:18;;;;;;;20.17;14.95;;;10.00;96.70;;;;;;4980092;28;20117;-82
2020/12/18 01:25:54;;;;;;;19.17;15.50;;;10.00;96.70;;;;;;4970571;28;20156;-83
2020/12/18 01:28:21;;;;;;;16.45;13.70;;;10.00;96.70;;;;;;5003571;28;20048;-82
2020/12/18 01:30:48;;;;;;;18.05;14.38;;;10.00;96.70;;;;;;4970109;28;20042;-82
2020/12/18 01:33:16;;;;;;;19.30;15.63;;;10.00;96.70;;;;;;4987156;28;20042;-83
2020/12/18 01:35:43;;;;;;;17.60;14.30;;;10.00;96.70;;;;;;4983943;28;20042;-82
2020/12/18 01:38:11;;;;;;;17.65;14.82;;;10.00;96.70;;;;;;4989050;28;20258;-86
2020/12/18 01:40:42;;;;;;;18.92;14.80;;;10.00;96.70;;;;;;4977545;28;20097;-87
2020/12/18 01:43:14;;;;;;;20.05;14.75;;;9.90;96.70;;;;;;4987552;28;20050;-83
2020/12/18 01:45:45;;;;;;;17.23;14.18;;;9.90;96.70;;;;;;4986917;28;20510;-83
2020/12/18 01:48:15;;;;;;;17.65;14.80;;;9.90;96.70;;;;;;4987828;28;20069;-83
2020/12/18 01:50:54;;;;;;;16.02;13.65;;;9.80;96.70;;;;;;4971323;28;20602;-83
2020/12/18 01:53:28;;;;;;;15.85;13.60;;;9.80;96.70;;;;;;4986019;28;20571;-83
2020/12/18 01:56:06;;;;;;;16.80;14.02;;;9.80;96.70;;;;;;4986937;28;20057;-84
2020/12/18 01:58:39;;;;;;;17.35;14.98;;;9.80;96.70;;;;;;4986545;28;20047;-83
2020/12/18 02:01:11;;;;;;;18.02;14.52;;;9.80;96.70;;;;;;4987243;28;20085;-83
2020/12/18 02:03:55;;;;;;;17.33;13.77;;;9.70;96.70;;;;;;4973247;28;20046;-83
2020/12/18 02:06:37;;;;;;;15.63;13.95;;;9.60;96.70;;;;;;4982129;28;20058;-83
2020/12/18 02:09:15;;;;;;;22.85;15.15;;;9.60;96.70;;;;;;4983024;28;20045;-83
2020/12/18 02:11:48;;;;;;;19.02;14.93;;;9.70;96.70;;;;;;4986044;28;20050;-83
2020/12/18 02:14:20;;;;;;;19.95;16.00;;;9.70;96.70;;;;;;5019669;28;20133;-83
2020/12/18 02:16:53;;;;;;;20.85;14.90;;;9.70;96.70;;;;;;5018369;28;20034;-83
2020/12/18 02:19:30;;;;;;;19.63;15.95;;;9.70;96.70;;;;;;4967787;28;20057;-83
2020/12/18 02:22:17;;;;;;;20.25;15.10;;;9.70;96.70;;;;;;4985702;28;20060;-83
2020/12/18 02:25:01;;;;;;;19.15;15.38;;;9.70;96.70;;;;;;4982604;28;20043;-83
2020/12/18 02:27:30;;;;;;;17.45;14.07;;;9.80;96.70;;;;;;4987741;28;20081;-83
2020/12/18 02:30:02;;;;;;;15.00;12.70;;;9.80;96.70;;;;;;4970520;28;20058;-83
2020/12/18 02:32:35;;;;;;;17.17;12.90;;;9.70;96.70;;;;;;4986889;28;20030;-83
2020/12/18 02:35:06;;;;;;;13.68;11.88;;;9.60;96.70;;;;;;4986753;28;20101;-83
2020/12/18 02:37:37;;;;;;;14.75;12.80;;;9.50;96.70;;;;;;4968693;28;20108;-83
2020/12/18 02:40:11;;;;;;;14.85;12.25;;;9.50;96.70;;;;;;4981662;28;20097;-84
2020/12/18 02:42:49;;;;;;;15.57;12.95;;;9.50;96.70;;;;;;5013596;28;20043;-83
2020/12/18 02:45:18;;;;;;;18.65;13.80;;;9.50;96.70;;;;;;4966954;28;20789;-83
2020/12/18 02:47:55;;;;;;;18.02;13.82;;;9.50;96.70;;;;;;4969143;28;20140;-83
2020/12/18 02:50:33;;;;;;;16.58;13.05;;;9.50;96.70;;;;;;4982537;28;20121;-83
2020/12/18 02:53:08;;;;;;;14.27;12.75;;;9.50;96.70;;;;;;4967052;28;20057;-84
2020/12/18 02:55:45;;;;;;;16.33;13.50;;;9.50;96.70;;;;;;4981092;28;20516;-83
2020/12/18 02:58:33;;;;;;;19.48;14.07;;;9.50;96.70;;;;;;4981485;28;20051;-83
2020/12/18 03:01:00;;;;;;;17.60;13.75;;;9.50;96.70;;;;;;4982973;28;20081;-83
2020/12/18 03:03:27;;;;;;;19.17;14.45;;;9.60;96.70;;;;;;4982847;28;20097;-83
2020/12/18 03:06:15;;;;;;;17.58;14.05;;;9.50;96.70;;;;;;4969338;28;20321;-84
2020/12/18 03:08:48;;;;;;;16.27;12.95;;;9.50;96.70;;;;;;4982980;28;20038;-83
2020/12/18 03:11:16;;;;;;;15.05;12.63;;;9.50;96.70;;;;;;4976065;28;20051;-84
2020/12/18 03:13:44;;;;;;;16.40;13.20;;;9.50;96.70;;;;;;4982100;28;20054;-83
2020/12/18 03:16:13;;;;;;;15.35;12.23;;;9.50;96.70;;;;;;5016044;28;20129;-83
2020/12/18 03:18:49;;;;;;;;;;;9.50;96.70;;;;;;4979382;28;20047;-83
2020/12/18 03:21:17;;;;;;;14.70;12.48;;;9.50;96.70;;;;;;4982780;28;20280;-84
2020/12/18 03:23:53;;;;;;;;;;;9.50;96.70;;;;;;4975523;28;20390;-83
2020/12/18 03:26:34;;;;;;;17.90;13.07;;;9.50;96.70;;;;;;4995937;28;19925;-83
2020/12/18 03:29:11;;;;;;;15.60;12.60;;;9.50;96.70;;;;;;4968234;28;20038;-83
2020/12/18 03:31:38;;;;;;;16.98;14.07;;;9.50;96.70;;;;;;4966053;28;20193;-84
2020/12/18 03:34:05;;;;;;;16.27;13.45;;;9.50;96.70;;;;;;4967678;28;20125;-83
2020/12/18 03:36:41;;;;;;;16.08;13.13;;;9.50;96.70;;;;;;4982798;28;20034;-84
2020/12/18 03:39:12;;;;;;;16.23;13.55;;;9.50;96.70;;;;;;4966605;28;20082;-83
2020/12/18 03:41:55;;;;;;;18.95;12.80;;;9.50;96.70;;;;;;4963874;28;20226;-83
2020/12/18 03:44:24;;;;;;;14.40;12.70;;;9.50;96.70;;;;;;4967720;28;20042;-84
2020/12/18 03:46:51;;;;;;;15.25;12.45;;;9.50;96.70;;;;;;4978952;28;20374;-83
2020/12/18 03:49:28;;;;;;;16.25;12.77;;;9.50;96.70;;;;;;4978763;28;20137;-83
2020/12/18 03:52:03;;;;;;;16.50;12.88;;;9.50;96.70;;;;;;4973512;28;20051;-83
2020/12/18 03:54:38;;;;;;;13.27;11.85;;;9.50;96.70;;;;;;4981281;28;20047;-83
2020/12/18 03:57:24;;;;;;;15.53;12.27;;;9.50;96.70;;;;;;4966169;28;20046;-83
2020/12/18 04:00:04;;;;;;;14.60;11.65;;;9.40;96.70;;;;;;4980594;28;20034;-84
2020/12/18 04:02:41;;;;;;;14.35;11.10;;;9.40;96.70;;;;;;4965349;28;20826;-83
2020/12/18 04:05:11;;;;;;;12.95;11.02;;;9.50;96.70;;;;;;4982558;28;20049;-84
2020/12/18 04:07:40;;;;;;;12.63;11.02;;;9.50;96.70;;;;;;4981266;28;20034;-83
2020/12/18 04:10:21;;;;;;;11.07;9.25;;;9.40;96.70;;;;;;4979497;28;20039;-85
2020/12/18 04:13:08;;;;;;;12.30;10.35;;;9.40;96.70;;;;;;4964687;28;20225;-84
2020/12/18 04:15:40;;;;;;;12.35;9.68;;;9.30;96.70;;;;;;4960315;28;20046;-84
2020/12/18 04:18:09;;;;;;;11.65;10.25;;;9.30;96.70;;;;;;4981193;28;20045;-83
2020/12/18 04:20:36;;;;;;;12.40;10.73;;;9.20;96.70;;;;;;4976676;28;20050;-83
2020/12/18 04:23:30;;;;;;;10.60;9.50;;;9.20;96.70;;;;;;5010988;28;20393;-83
2020/12/18 04:26:11;;;;;;;11.30;9.90;;;9.20;96.70;;;;;;4980245;28;20038;-84
2020/12/18 04:28:39;;;;;;;11.57;9.80;;;9.20;96.70;;;;;;4998327;28;20038;-82
2020/12/18 04:31:09;;;;;;;13.88;10.70;;;9.20;96.70;;;;;;4975810;28;20145;-83
2020/12/18 04:33:37;;;;;;;12.80;10.73;;;9.20;96.70;;;;;;4977834;28;20035;-83
2020/12/18 04:36:04;;;;;;;11.57;10.38;;;9.10;96.70;;;;;;4981072;28;20751;-84
2020/12/18 04:38:37;;;;;;;11.40;10.20;;;9.10;96.70;;;;;;4993379;28;20049;-83
2020/12/18 04:41:09;;;;;;;11.27;10.13;;;9.00;96.70;;;;;;4981947;28;20128;-83
2020/12/18 04:43:42;;;;;;;11.88;10.15;;;9.00;96.70;;;;;;4981028;28;20038;-83
2020/12/18 04:46:22;;;;;;;12.80;10.18;;;9.00;96.70;;;;;;4983756;28;20045;-83
2020/12/18 04:48:49;;;;;;;11.88;10.07;;;9.00;96.70;;;;;;4981454;28;20144;-83
2020/12/18 04:51:22;;;;;;;12.57;10.50;;;8.90;96.70;;;;;;4981743;28;20053;-83
2020/12/18 04:53:59;;;;;;;11.25;9.73;;;8.90;96.70;;;;;;4965384;28;20067;-83
2020/12/18 04:56:36;;;;;;;11.35;10.05;;;8.80;96.70;;;;;;4965870;28;20062;-83
2020/12/18 04:59:13;;;;;;;11.63;9.80;;;8.80;96.70;;;;;;4977188;28;20035;-83
2020/12/18 05:01:57;;;;;;;11.40;9.50;;;8.80;96.70;;;;;;4981966;28;20105;-83
2020/12/18 05:04:31;;;;;;;12.00;10.38;;;8.80;96.70;;;;;;5009653;28;20097;-83
2020/12/18 05:07:11;;;;;;;11.82;9.70;;;8.60;96.70;;;;;;4978095;28;20046;-84
2020/12/18 05:09:48;;;;;;;13.25;10.07;;;8.70;96.70;;;;;;4962840;28;20076;-83
2020/12/18 05:12:18;;;;;;;13.55;10.10;;;8.60;96.70;;;;;;4981243;28;20081;-83
2020/12/18 05:14:48;;;;;;;13.15;10.00;;;8.60;96.70;;;;;;4980797;28;20048;-83
2020/12/18 05:17:29;;;;;;;11.90;9.65;;;8.60;96.70;;;;;;4993164;28;20046;-83
2020/12/18 05:19:58;;;;;;;12.13;10.20;;;8.50;96.70;;;;;;5011346;28;20046;-83
2020/12/18 05:22:45;;;;;;;11.48;10.25;;;8.50;96.70;;;;;;4976201;28;20070;-83
2020/12/18 05:25:24;;;;;;;12.57;10.23;;;8.50;96.70;;;;;;4964108;28;20042;-83
2020/12/18 05:27:56;;;;;;;12.38;10.65;;;8.50;96.70;;;;;;4978716;28;20038;-83
2020/12/18 05:30:27;;;;;;;13.95;10.40;;;8.40;96.70;;;;;;4980901;28;20135;-83
2020/12/18 05:33:18;;;;;;;11.80;10.38;;;8.40;96.70;;;;;;4993589;28;20246;-83
2020/12/18 05:36:05;;;;;;;13.18;10.35;;;8.40;96.70;;;;;;4977704;28;20042;-83
2020/12/18 05:38:35;;;;;;;12.35;10.23;;;8.40;96.70;;;;;;4980364;28;20043;-83
2020/12/18 05:41:08;;;;;;;13.27;10.20;;;8.40;96.70;;;;;;4973802;28;20098;-83
2020/12/18 05:43:47;;;;;;;12.65;10.90;;;8.40;96.70;;;;;;4981159;28;20334;-83
2020/12/18 05:46:37;;;;;;;;;;;8.40;96.70;;;;;;4994875;28;20445;-83
2020/12/18 05:49:11;;;;;;;11.48;9.98;;;8.40;96.70;;;;;;4980886;28;19933;-83
2020/12/18 05:51:49;;;;;;;12.65;10.85;;;8.40;96.70;;;;;;4964157;28;20051;-83
2020/12/18 05:54:38;;;;;;;11.88;10.65;;;8.40;96.70;;;;;;4963877;28;20105;-83
2020/12/18 05:57:11;;;;;;;13.23;10.55;;;8.40;96.70;;;;;;4980220;28;20045;-84
2020/12/18 05:59:44;;;;;;;11.65;9.90;;;8.40;96.70;;;;;;4995703;28;20043;-84
2020/12/18 06:02:20;;;;;;;12.82;9.32;;;8.40;96.70;;;;;;4979767;28;20046;-83
2020/12/18 06:05:01;;;;;;;11.63;9.02;;;8.40;96.70;;;;;;4976570;28;20042;-84
2020/12/18 06:07:43;;;;;;;10.60;8.88;;;8.30;96.70;;;;;;4975744;28;20062;-84
2020/12/18 06:10:25;;;;;;;11.63;10.15;;;8.40;96.70;;;;;;4965802;28;20051;-84
2020/12/18 06:13:12;;;;;;;11.32;9.40;;;8.40;96.70;;;;;;4991547;28;20049;-84
2020/12/18 06:15:54;;;;;;;12.35;10.13;;;8.40;96.70;;;;;;4969936;28;20034;-84
2020/12/18 06:18:43;;;;;;;11.80;9.63;;;8.40;96.70;;;;;;4982295;28;20533;-84
2020/12/18 06:21:14;;;;;;;15.48;10.35;;;8.40;96.70;;;;;;4983704;28;20161;-84
2020/12/18 06:23:45;;;;;;;13.57;10.82;;;8.40;96.70;;;;;;4967928;28;20046;-84
2020/12/18 06:26:32;;;;;;;10.75;9.55;;;8.40;96.70;;;;;;4970729;28;20038;-84
2020/12/18 06:29:21;;;;;;;12.23;10.00;;;8.40;96.70;;;;;;4968829;28;20128;-84
2020/12/18 06:32:20;;;;;;;13.52;10.63;;;8.50;96.70;;;;;;4967494;28;20054;-84
2020/12/18 06:35:27;;;;;;;13.48;11.05;;;8.40;96.70;;;;;;4981271;28;20153;-84
2020/12/18 06:38:26;;;;;;;11.23;9.60;;;8.40;96.70;;;;;;5010067;28;20044;-80
2020/12/18 06:41:23;;;;;;;10.85;9.63;;;8.40;96.70;;;;;;4981243;28;20050;-81
2020/12/18 06:44:32;;;;;;;10.32;9.20;;;8.30;96.70;;;;;;4981150;28;20046;-86
2020/12/18 06:47:26;;;;;;;12.50;9.18;;;8.30;96.70;;;;;;4972246;28;20166;-87
2020/12/18 06:50:07;;;;;;;11.88;9.93;;;8.30;96.70;;;;;;4983010;28;20694;-83
2020/12/18 06:52:55;;;;;;;10.63;9.30;;;8.30;96.70;;;;;;4985631;28;20046;-87
2020/12/18 06:55:37;;;;;;;10.50;9.45;;;8.30;96.70;;;;;;4983606;28;20038;-85
2020/12/18 06:58:17;;;;;;;11.23;8.63;;;8.30;96.70;;;;;;4981702;28;20034;-84
2020/12/18 07:00:48;;;;;;;13.73;9.38;;;8.30;96.70;;;;;;4981003;28;20042;-85
2020/12/18 07:03:32;;;;;;;26.33;10.23;;;8.30;96.70;;;;;;4996678;28;20054;-88
2020/12/18 07:06:02;;;;;;;13.82;9.50;;;8.30;96.70;;;;;;4982445;28;20093;-88
2020/12/18 07:08:31;;;;;;;14.45;9.80;;;8.30;96.70;;;;;;4980872;28;20046;-87
2020/12/18 07:11:02;;;;;;;11.43;8.85;;;8.30;96.70;;;;;;4967314;28;20050;-88
2020/12/18 07:13:31;;;;;;;12.02;9.73;;;8.30;96.70;;;;;;4984333;28;20042;-89
2020/12/18 07:16:02;;;;;;;12.50;9.70;;;8.40;96.70;;;;;;4977657;28;20119;-82
2020/12/18 07:18:31;;;;;;;13.23;10.02;;;8.40;96.70;;;;;;4979720;28;20049;-80
2020/12/18 07:21:01;;;;;;;11.25;9.32;;;8.40;96.70;;;;;;4982214;28;20058;-89
2020/12/18 07:23:29;;;;;;;10.98;9.80;;;8.40;96.70;;;;;;4982497;28;20101;-85
2020/12/18 07:25:59;;;;;;;12.77;9.55;;;8.40;96.70;;;;;;4982831;28;20047;-87
2020/12/18 07:28:28;;;;;;;11.07;9.63;;;8.40;96.70;;;;;;4967679;28;20049;-87
2020/12/18 07:30:57;;;;;;;11.30;9.18;;;8.30;96.70;;;;;;4983812;28;20496;-87
2020/12/18 07:33:26;;;;;;;12.82;9.82;;;8.40;96.70;;;;;;4984231;28;20069;-85
2020/12/18 07:35:56;;;;;;;14.75;9.38;;;8.40;96.70;;;;;;4982901;28;20065;-88
2020/12/18 07:38:26;;;;;;;10.23;9.07;;;8.30;96.70;;;;;;4982115;28;20065;-87
2020/12/18 07:40:55;;;;;;;10.77;9.15;;;8.30;96.70;;;;;;5014254;28;20141;-86
2020/12/18 07:43:27;;;;;;;10.90;9.80;;;8.30;96.70;;;;;;4981777;28;20043;-88
2020/12/18 07:45:57;;;;;;;10.77;9.15;;;8.30;96.70;;;;;;4980123;28;20043;-87
2020/12/18 07:48:27;;;;;;;10.52;8.35;;;8.30;96.70;;;;;;4983600;28;20046;-87
2020/12/18 07:50:58;;;;;;;9.65;8.18;;;8.30;96.70;;;;;;4984071;28;20062;-88
2020/12/18 07:53:26;;;;;;;11.98;10.23;;;8.40;96.70;;;;;;4998624;28;20508;-88
2020/12/18 07:55:58;;;;;;;12.75;9.30;;;8.40;96.70;;;;;;4981277;28;20065;-88
2020/12/18 07:58:26;;;;;;;17.17;10.40;;;8.40;96.70;;;;;;4984293;28;20042;-87
2020/12/18 08:01:04;;;;;;;13.30;10.05;;;8.50;96.70;;;;;;4982404;28;20038;-86
2020/12/18 08:03:32;;;;;;;11.93;10.35;;;8.50;96.70;;;;;;4982798;28;20101;-86
2020/12/18 08:06:03;;;;;;;15.00;11.43;;;8.50;96.70;;;;;;4982742;28;20065;-87
2020/12/18 08:08:32;;;;;;;19.30;11.13;;;8.60;96.70;;;;;;4985168;28;20122;-86
2020/12/18 08:11:02;;;;;;;19.80;11.60;;;8.60;96.70;;;;;;4983443;28;20133;-88
2020/12/18 08:13:31;;;;;;;19.95;10.98;;;8.60;96.70;;;;;;4963952;28;20050;-87
2020/12/18 08:16:08;;;;;;;23.30;13.10;;;8.60;96.70;;;;;;4976470;28;20045;-88
2020/12/18 08:18:36;;;;;;;24.73;12.57;;;8.70;96.70;;;;;;4975133;28;20603;-85
2020/12/18 08:21:03;;;;;;;21.65;13.00;;;8.70;96.70;;;;;;4967357;28;20058;-86
2020/12/18 08:23:34;;;;;;;25.75;13.35;;;8.80;96.70;;;;;;4981406;28;20117;-85
2020/12/18 08:26:04;;;;;;;29.33;13.85;;;8.90;96.70;;;;;;4965773;28;20529;-86
2020/12/18 08:28:33;;;;;;;26.13;13.70;;;8.90;96.70;;;;;;4965659;28;20550;-84
2020/12/18 08:31:05;;;;;;;24.50;13.30;;;9.00;96.70;;;;;;4981475;28;20727;-85
2020/12/18 08:33:38;;;;;;;28.63;15.15;;;9.10;96.70;;;;;;4981576;28;20042;-92
2020/12/18 08:36:06;;;;;;;81.45;52.40;;;9.10;96.70;;;;;;4986926;28;20129;-90
2020/12/18 08:38:33;;;;;;;142.65;109.78;;;9.20;96.70;;;;;;4984191;28;20038;-84
2020/12/18 08:41:01;;;;;;;29.23;19.30;;;9.40;96.70;;;;;;4980900;28;20141;-87
2020/12/18 08:43:28;;;;;;;31.00;17.90;;;9.50;96.70;;;;;;4982333;28;20093;-89
2020/12/18 08:45:59;;;;;;;38.65;22.08;;;9.50;96.70;;;;;;4980440;28;20054;-87
2020/12/18 08:48:29;;;;;;;29.52;19.35;;;9.60;96.70;;;;;;4962646;28;20063;-89
2020/12/18 08:51:01;;;;;;;33.45;19.50;;;9.60;96.70;;;;;;4980812;28;20042;-86
2020/12/18 08:53:36;;;;;;;29.42;16.65;;;9.70;96.70;;;;;;4963917;28;20086;-85
2020/12/18 08:56:06;;;;;;;26.40;14.93;;;9.80;96.70;;;;;;4980363;28;20046;-87
2020/12/18 08:58:34;;;;;;;21.30;13.65;;;9.90;96.70;;;;;;4976409;28;20046;-85
2020/12/18 09:01:24;;;;;;;20.27;13.38;;;9.90;96.70;;;;;;4981001;28;20046;-84
2020/12/18 09:03:51;;;;;;;24.45;12.85;;;10.00;96.70;;;;;;4980586;28;20070;-87
2020/12/18 09:06:19;;;;;;;19.17;13.23;;;10.10;96.70;;;;;;4980850;28;20049;-85
2020/12/18 09:08:47;;;;;;;19.35;11.70;;;10.20;96.70;;;;;;4981168;28;20497;-85
2020/12/18 09:11:23;;;;;;;13.90;10.48;;;10.20;96.70;;;;;;4981902;28;20066;-88
2020/12/18 09:13:50;;;;;;;;;;;10.30;96.70;;;;;;4966177;28;20169;-86
2020/12/18 09:16:24;;;;;;;14.50;9.77;;;10.40;96.70;;;;;;4999852;28;19936;-88
2020/12/18 09:18:54;;;;;;;9.98;8.95;;;10.40;96.70;;;;;;4980714;28;20042;-88
2020/12/18 09:21:22;;;;;;;34.63;25.73;;;10.50;96.70;;;;;;4982803;28;20163;-85
2020/12/18 09:23:49;;;;;;;26.20;20.92;;;10.60;96.70;;;;;;4965699;28;20047;-86
2020/12/18 09:26:28;;;;;;;18.98;16.13;;;10.60;96.70;;;;;;4979131;28;20042;-87
2020/12/18 09:28:56;;;;;;;18.27;15.45;;;10.70;96.70;;;;;;4981965;28;20481;-90
2020/12/18 09:31:24;;;;;;;16.38;14.35;;;10.80;96.70;;;;;;4984785;28;20048;-95
2020/12/18 09:33:52;;;;;;;17.05;15.18;;;10.90;96.70;;;;;;4965831;28;20042;-90
2020/12/18 09:36:19;;;;;;;16.38;14.43;;;10.90;96.70;;;;;;4980045;28;20038;-91
2020/12/18 09:38:48;;;;;;;17.08;14.20;;;11.00;96.70;;;;;;4985102;28;20038;-93
2020/12/18 09:41:18;;;;;;;16.15;13.60;;;11.10;96.70;;;;;;4982683;28;20042;-90
2020/12/18 09:43:46;;;;;;;15.25;12.73;;;11.20;96.70;;;;;;4981859;28;20046;-88
2020/12/18 09:46:13;;;;;;;15.82;13.30;;;11.30;96.70;;;;;;4981971;28;20038;-88
2020/12/18 09:48:44;;;;;;;17.55;14.18;;;11.40;96.70;;;;;;4971119;28;20058;-94
2020/12/18 09:51:12;;;;;;;16.52;14.18;;;11.60;96.70;;;;;;4985440;28;20066;-93
2020/12/18 09:53:40;;;;;;;14.88;13.38;;;11.60;96.70;;;;;;4985983;28;20041;-89
2020/12/18 09:56:08;;;;;;;18.73;15.20;;;11.70;96.70;;;;;;4971188;28;20038;-93
2020/12/18 09:58:35;;;;;;;17.92;14.60;;;11.90;96.70;;;;;;4971831;28;20062;-94
2020/12/18 10:01:03;;;;;;;19.52;14.82;;;12.00;96.70;;;;;;4984673;28;20106;-92
2020/12/18 10:03:30;;;;;;;17.80;15.05;;;12.10;96.70;;;;;;4986138;28;20042;-91
2020/12/18 10:05:59;;;;;;;16.88;14.27;;;12.20;96.70;;;;;;4988555;28;20050;-94
2020/12/18 10:08:31;;;;;;;16.30;14.52;;;12.40;96.70;;;;;;4970590;28;20044;-94
2020/12/18 10:10:58;;;;;;;18.00;15.20;;;12.40;96.70;;;;;;4985108;28;20093;-92
2020/12/18 10:13:25;;;;;;;16.95;14.40;;;12.50;96.70;;;;;;4986336;28;20048;-93
2020/12/18 10:15:52;;;;;;;18.95;15.32;;;12.50;96.70;;;;;;4969778;28;20194;-90
2020/12/18 10:18:19;;;;;;;17.90;15.57;;;12.50;96.70;;;;;;4984167;28;20046;-91
2020/12/18 10:20:46;;;;;;;18.23;16.00;;;12.70;96.70;;;;;;4969816;28;20061;-93
2020/12/18 10:23:15;;;;;;;19.60;15.98;;;12.70;96.70;;;;;;4970159;28;20101;-89
2020/12/18 10:25:56;;;;;;;17.25;14.05;;;12.80;96.70;;;;;;4985381;28;20042;-93
2020/12/18 10:28:25;;;;;;;17.50;14.40;;;12.80;96.70;;;;;;4986236;28;20046;-88
2020/12/18 10:30:53;;;;;;;17.98;14.15;;;12.90;96.70;;;;;;4969094;28;20267;-89
2020/12/18 10:33:21;;;;;;;17.27;14.25;;;12.90;96.70;;;;;;4986236;28;20043;-91
2020/12/18 10:35:48;;;;;;;19.02;14.27;;;13.00;96.70;;;;;;4969761;28;20042;-92
2020/12/18 10:38:16;;;;;;;16.20;14.02;;;13.00;96.70;;;;;;4980436;28;20061;-84
2020/12/18 10:40:43;;;;;;;18.65;14.38;;;13.10;96.70;;;;;;4966576;28;20049;-84
2020/12/18 10:43:12;;;;;;;16.83;13.63;;;13.10;96.70;;;;;;4966127;28;20037;-84
2020/12/18 10:45:40;;;;;;;16.80;12.25;;;13.20;96.70;;;;;;4982294;28;20045;-86
2020/12/18 10:48:07;;;;;;;16.52;12.50;;;13.30;96.70;;;;;;4983587;28;20049;-86
2020/12/18 10:50:34;;;;;;;15.88;13.85;;;13.40;96.70;;;;;;4982649;28;20101;-87
2020/12/18 10:53:03;;;;;;;18.77;14.70;;;13.50;96.70;;;;;;4983926;28;20065;-83
2020/12/18 10:55:31;;;;;;;19.88;16.67;;;13.50;96.70;;;;;;4995099;28;20520;-86
2020/12/18 10:57:58;;;;;;;15.52;13.80;;;13.50;96.70;;;;;;4979827;28;20058;-91
2020/12/18 11:00:25;;;;;;;15.02;12.77;;;13.60;96.70;;;;;;4983601;28;20491;-87
2020/12/18 11:02:52;;;;;;;17.02;12.52;;;13.60;96.70;;;;;;4970648;28;20133;-87
2020/12/18 11:05:20;;;;;;;16.20;10.85;;;13.70;96.70;;;;;;4982331;28;20058;-87
2020/12/18 11:07:47;;;;;;;16.98;10.73;;;13.70;96.70;;;;;;4982070;28;20046;-87
2020/12/18 11:10:14;;;;;;;14.35;10.75;;;13.80;96.70;;;;;;4987259;28;20034;-88
2020/12/18 11:12:42;;;;;;;11.65;10.18;;;13.80;96.70;;;;;;4978276;28;20310;-88
2020/12/18 11:15:12;;;;;;;10.68;9.57;;;13.90;96.70;;;;;;4979630;28;20046;-86
2020/12/18 11:17:39;;;;;;;10.90;9.30;;;14.00;96.70;;;;;;4977000;28;20050;-92
2020/12/18 11:20:06;;;;;;;13.30;9.23;;;14.10;96.70;;;;;;4982877;28;20361;-91
2020/12/18 11:22:33;;;;;;;10.38;8.95;;;14.20;96.70;;;;;;4959387;28;20040;-90
2020/12/18 11:25:00;;;;;;;9.70;8.45;;;14.30;96.70;;;;;;4944853;28;20565;-92
2020/12/18 11:27:27;;;;;;;11.38;10.27;;;14.30;96.70;;;;;;4947003;29;20532;-94
2020/12/18 11:29:56;;;;;;;12.18;8.73;;;14.40;96.70;;;;;;4961347;28;20446;-92
2020/12/18 11:32:23;;;;;;;10.60;8.70;;;14.50;96.70;;;;;;4929840;29;20070;-85
2020/12/18 11:34:50;;;;;;;11.52;9.75;;;14.60;96.70;;;;;;4939067;29;20098;-92
2020/12/18 11:37:17;;;;;;;12.73;9.88;;;14.70;96.70;;;;;;4946765;28;20039;-92
2020/12/18 11:39:45;;;;;;;14.48;9.18;;;14.80;96.70;;;;;;4937816;29;20502;-93
2020/12/18 11:42:13;;;;;;;10.88;9.43;;;14.80;96.70;;;;;;4945725;29;20047;-91
2020/12/18 11:44:41;;;;;;;10.57;9.45;;;15.00;96.70;;;;;;4938712;28;20058;-86
2020/12/18 11:47:09;;;;;;;12.85;10.18;;;15.10;96.70;;;;;;4943411;29;20049;-89
2020/12/18 11:49:36;;;;;;;11.77;9.10;;;15.20;96.70;;;;;;4943601;29;20367;-87
2020/12/18 11:52:04;;;;;;;11.95;10.20;;;15.30;96.70;;;;;;4945572;29;20059;-85
2020/12/18 11:54:31;;;;;;;12.07;9.40;;;15.40;96.70;;;;;;4943605;29;20525;-89
2020/12/18 11:56:58;;;;;;;11.90;9.40;;;15.50;96.70;;;;;;4926910;29;20388;-91
2020/12/18 11:59:26;;;;;;;10.45;9.43;;;15.60;96.70;;;;;;4946659;28;20077;-90
2020/12/18 12:01:53;;;;;;;12.35;9.75;;;15.50;96.70;;;;;;4943580;28;20462;-87
2020/12/18 12:04:21;;;;;;;12.85;9.73;;;15.50;96.70;;;;;;4944168;29;20474;-85
2020/12/18 12:06:48;;;;;;;11.38;9.43;;;15.60;96.70;;;;;;4942195;29;20047;-86
2020/12/18 12:09:15;;;;;;;11.15;9.00;;;15.70;96.70;;;;;;4939669;28;20044;-86
2020/12/18 12:11:43;;;;;;;11.43;8.95;;;15.70;96.70;;;;;;4927550;29;20047;-89
2020/12/18 12:14:10;;;;;;;9.93;8.93;;;15.80;96.70;;;;;;4945085;29;20047;-89
2020/12/18 12:16:41;;;;;;;12.52;9.02;;;15.90;96.70;;;;;;4945438;29;20049;-89
2020/12/18 12:19:09;;;;;;;12.70;9.05;;;16.00;96.70;;;;;;4924930;29;20501;-86
2020/12/18 12:21:38;;;;;;;11.48;8.75;;;16.00;96.70;;;;;;4963797;28;20046;-89
2020/12/18 12:24:06;;;;;;;12.13;9.40;;;16.10;96.70;;;;;;4965212;28;20537;-80
2020/12/18 12:26:33;;;;;;;12.48;9.50;;;16.20;96.70;;;;;;4981011;28;20468;-85
2020/12/18 12:29:01;;;;;;;12.48;9.73;;;16.30;96.70;;;;;;4980528;28;20069;-86
2020/12/18 12:31:28;;;;;;;10.25;8.88;;;16.30;96.70;;;;;;4980961;28;20038;-87
2020/12/18 12:33:55;;;;;;;12.15;10.07;;;16.30;96.70;;;;;;4982386;28;20050;-87
2020/12/18 12:36:24;;;;;;;14.80;8.88;;;16.40;96.70;;;;;;4965591;28;20512;-88
2020/12/18 12:38:52;;;;;;;13.02;10.32;;;16.50;96.70;;;;;;4979272;28;20394;-87
2020/12/18 12:41:21;;;;;;;13.30;10.70;;;16.60;96.70;;;;;;4963514;28;20077;-87
2020/12/18 12:43:48;;;;;;;9.75;8.75;;;16.70;96.70;;;;;;4983960;28;20061;-87
2020/12/18 12:46:15;;;;;;;11.05;8.80;;;16.70;96.70;;;;;;4966130;28;20042;-87
2020/12/18 12:48:43;;;;;;;11.00;9.30;;;16.70;96.70;;;;;;4963103;28;20121;-87
2020/12/18 12:51:13;;;;;;;9.50;8.50;;;16.70;96.70;;;;;;4963644;28;20087;-87
2020/12/18 12:53:40;;;;;;;10.52;9.35;;;16.70;96.70;;;;;;4978100;28;20108;-88
2020/12/18 12:56:08;;;;;;;11.43;9.88;;;16.80;96.70;;;;;;4980880;28;20093;-88
2020/12/18 12:58:35;;;;;;;9.27;8.15;;;16.80;96.70;;;;;;4982125;28;20041;-86
2020/12/18 13:01:03;;;;;;;10.35;7.65;;;16.80;96.70;;;;;;4963456;28;20464;-90